sensor_id;sensor_type;location;lat;lon;timestamp;P1;durP1;ratioP1;P2;durP2;ratioP2
11763;SDS011;5939;56.522;14.950;2023-11-19T00:02:13;3.23;;;2.13;;
11763;SDS011;5939;56.522;14.950;2023-11-19T00:04:39;2.73;;;2.43;;
11763;SDS011;5939;56.522;14.950;2023-11-19T00:07:05;4.40;;;2.63;;
11763;SDS011;5939;56.522;14.950;2023-11-19T00:09:35;3.23;;;2.20;;
11763;SDS011;5939;56.522;14.950;2023-11-19T00:12:05;3.10;;;2.33;;
11763;SDS011;5939;56.522;14.950;2023-11-19T00:14:31;2.77;;;2.47;;
11763;SDS011;5939;56.522;14.950;2023-11-19T00:16:58;3.67;;;2.20;;
11763;SDS011;5939;56.522;14.950;2023-11-19T00:19:23;3.60;;;2.77;;
11763;SDS011;5939;56.522;14.950;2023-11-19T00:21:49;3.23;;;2.40;;
11763;SDS011;5939;56.522;14.950;2023-11-19T00:24:15;3.40;;;2.40;;
11763;SDS011;5939;56.522;14.950;2023-11-19T00:26:42;5.30;;;2.80;;
11763;SDS011;5939;56.522;14.950;2023-11-19T00:29:07;4.37;;;2.53;;
11763;SDS011;5939;56.522;14.950;2023-11-19T00:31:33;2.50;;;2.20;;
11763;SDS011;5939;56.522;14.950;2023-11-19T00:33:59;5.67;;;2.50;;
11763;SDS011;5939;56.522;14.950;2023-11-19T00:36:24;3.77;;;2.43;;
11763;SDS011;5939;56.522;14.950;2023-11-19T00:38:50;3.70;;;2.50;;
11763;SDS011;5939;56.522;14.950;2023-11-19T00:41:17;4.27;;;2.67;;
11763;SDS011;5939;56.522;14.950;2023-11-19T00:43:44;3.30;;;2.63;;
11763;SDS011;5939;56.522;14.950;2023-11-19T00:46:09;4.60;;;2.50;;
11763;SDS011;5939;56.522;14.950;2023-11-19T00:48:38;3.60;;;2.60;;
11763;SDS011;5939;56.522;14.950;2023-11-19T00:51:05;3.03;;;2.30;;
11763;SDS011;5939;56.522;14.950;2023-11-19T00:53:31;3.70;;;2.53;;
11763;SDS011;5939;56.522;14.950;2023-11-19T00:55:57;3.20;;;2.40;;
11763;SDS011;5939;56.522;14.950;2023-11-19T00:58:23;3.53;;;2.57;;
11763;SDS011;5939;56.522;14.950;2023-11-19T01:00:48;3.60;;;2.73;;
11763;SDS011;5939;56.522;14.950;2023-11-19T01:03:14;3.70;;;2.50;;
11763;SDS011;5939;56.522;14.950;2023-11-19T01:05:41;3.97;;;2.70;;
11763;SDS011;5939;56.522;14.950;2023-11-19T01:08:07;3.47;;;2.53;;
11763;SDS011;5939;56.522;14.950;2023-11-19T01:10:33;3.97;;;2.70;;
11763;SDS011;5939;56.522;14.950;2023-11-19T01:12:59;4.00;;;2.90;;
11763;SDS011;5939;56.522;14.950;2023-11-19T01:15:25;3.73;;;2.57;;
11763;SDS011;5939;56.522;14.950;2023-11-19T01:17:51;3.73;;;2.70;;
11763;SDS011;5939;56.522;14.950;2023-11-19T01:20:17;2.77;;;2.43;;
11763;SDS011;5939;56.522;14.950;2023-11-19T01:22:42;2.63;;;2.23;;
11763;SDS011;5939;56.522;14.950;2023-11-19T01:25:08;3.33;;;2.47;;
11763;SDS011;5939;56.522;14.950;2023-11-19T01:27:34;3.07;;;2.53;;
11763;SDS011;5939;56.522;14.950;2023-11-19T01:30:03;3.10;;;2.40;;
11763;SDS011;5939;56.522;14.950;2023-11-19T01:32:30;4.07;;;2.93;;
11763;SDS011;5939;56.522;14.950;2023-11-19T01:34:57;3.23;;;2.40;;
11763;SDS011;5939;56.522;14.950;2023-11-19T01:37:23;2.67;;;2.30;;
11763;SDS011;5939;56.522;14.950;2023-11-19T01:39:48;3.63;;;2.83;;
11763;SDS011;5939;56.522;14.950;2023-11-19T01:42:14;3.10;;;2.53;;
11763;SDS011;5939;56.522;14.950;2023-11-19T01:44:40;3.27;;;2.60;;
11763;SDS011;5939;56.522;14.950;2023-11-19T01:47:06;2.70;;;2.40;;
11763;SDS011;5939;56.522;14.950;2023-11-19T01:49:33;4.43;;;2.43;;
11763;SDS011;5939;56.522;14.950;2023-11-19T01:51:59;3.63;;;2.70;;
11763;SDS011;5939;56.522;14.950;2023-11-19T01:54:26;3.67;;;2.83;;
11763;SDS011;5939;56.522;14.950;2023-11-19T01:56:53;3.50;;;2.70;;
11763;SDS011;5939;56.522;14.950;2023-11-19T01:59:21;5.17;;;3.10;;
11763;SDS011;5939;56.522;14.950;2023-11-19T02:01:51;3.93;;;2.73;;
11763;SDS011;5939;56.522;14.950;2023-11-19T02:04:19;2.87;;;2.57;;
11763;SDS011;5939;56.522;14.950;2023-11-19T02:06:45;3.30;;;2.60;;
11763;SDS011;5939;56.522;14.950;2023-11-19T02:09:13;3.20;;;2.57;;
11763;SDS011;5939;56.522;14.950;2023-11-19T02:11:39;3.30;;;2.37;;
11763;SDS011;5939;56.522;14.950;2023-11-19T02:14:05;4.27;;;2.97;;
11763;SDS011;5939;56.522;14.950;2023-11-19T02:16:31;3.83;;;3.27;;
11763;SDS011;5939;56.522;14.950;2023-11-19T02:18:57;3.30;;;2.40;;
11763;SDS011;5939;56.522;14.950;2023-11-19T02:21:23;3.43;;;2.73;;
11763;SDS011;5939;56.522;14.950;2023-11-19T02:23:49;4.30;;;3.37;;
11763;SDS011;5939;56.522;14.950;2023-11-19T02:26:24;3.63;;;3.20;;
11763;SDS011;5939;56.522;14.950;2023-11-19T02:28:54;4.63;;;3.03;;
11763;SDS011;5939;56.522;14.950;2023-11-19T02:31:20;4.17;;;3.00;;
11763;SDS011;5939;56.522;14.950;2023-11-19T02:33:47;4.53;;;3.13;;
11763;SDS011;5939;56.522;14.950;2023-11-19T02:36:15;3.87;;;3.10;;
11763;SDS011;5939;56.522;14.950;2023-11-19T02:38:41;3.53;;;3.00;;
11763;SDS011;5939;56.522;14.950;2023-11-19T02:41:07;3.87;;;2.80;;
11763;SDS011;5939;56.522;14.950;2023-11-19T02:43:34;3.63;;;2.77;;
11763;SDS011;5939;56.522;14.950;2023-11-19T02:46:04;4.13;;;2.83;;
11763;SDS011;5939;56.522;14.950;2023-11-19T02:48:34;3.80;;;3.07;;
11763;SDS011;5939;56.522;14.950;2023-11-19T02:51:03;5.97;;;3.33;;
11763;SDS011;5939;56.522;14.950;2023-11-19T02:53:29;4.63;;;3.23;;
11763;SDS011;5939;56.522;14.950;2023-11-19T02:55:55;3.60;;;3.20;;
11763;SDS011;5939;56.522;14.950;2023-11-19T02:58:27;4.03;;;2.80;;
11763;SDS011;5939;56.522;14.950;2023-11-19T03:00:54;4.00;;;2.67;;
11763;SDS011;5939;56.522;14.950;2023-11-19T03:03:24;3.63;;;2.93;;
11763;SDS011;5939;56.522;14.950;2023-11-19T03:05:53;3.27;;;2.70;;
11763;SDS011;5939;56.522;14.950;2023-11-19T03:08:20;3.87;;;3.03;;
11763;SDS011;5939;56.522;14.950;2023-11-19T03:10:47;3.77;;;2.77;;
11763;SDS011;5939;56.522;14.950;2023-11-19T03:13:13;3.93;;;2.90;;
11763;SDS011;5939;56.522;14.950;2023-11-19T03:15:39;3.47;;;2.60;;
11763;SDS011;5939;56.522;14.950;2023-11-19T03:18:06;3.53;;;2.60;;
11763;SDS011;5939;56.522;14.950;2023-11-19T03:20:32;4.10;;;2.67;;
11763;SDS011;5939;56.522;14.950;2023-11-19T03:22:58;3.33;;;2.80;;
11763;SDS011;5939;56.522;14.950;2023-11-19T03:25:26;5.43;;;2.70;;
11763;SDS011;5939;56.522;14.950;2023-11-19T03:27:58;3.50;;;2.70;;
11763;SDS011;5939;56.522;14.950;2023-11-19T03:30:24;3.37;;;2.43;;
11763;SDS011;5939;56.522;14.950;2023-11-19T03:32:49;3.90;;;2.90;;
11763;SDS011;5939;56.522;14.950;2023-11-19T03:35:15;3.53;;;2.60;;
11763;SDS011;5939;56.522;14.950;2023-11-19T03:37:41;2.73;;;2.47;;
11763;SDS011;5939;56.522;14.950;2023-11-19T03:40:08;3.50;;;2.37;;
11763;SDS011;5939;56.522;14.950;2023-11-19T03:42:35;2.77;;;2.43;;
11763;SDS011;5939;56.522;14.950;2023-11-19T03:45:00;3.73;;;2.87;;
11763;SDS011;5939;56.522;14.950;2023-11-19T03:47:28;2.77;;;2.43;;
11763;SDS011;5939;56.522;14.950;2023-11-19T03:49:54;3.80;;;2.87;;
11763;SDS011;5939;56.522;14.950;2023-11-19T03:52:20;3.50;;;2.40;;
11763;SDS011;5939;56.522;14.950;2023-11-19T03:54:45;3.30;;;2.67;;
11763;SDS011;5939;56.522;14.950;2023-11-19T03:57:11;3.10;;;2.67;;
11763;SDS011;5939;56.522;14.950;2023-11-19T03:59:38;3.53;;;2.30;;
11763;SDS011;5939;56.522;14.950;2023-11-19T04:02:04;3.50;;;2.50;;
11763;SDS011;5939;56.522;14.950;2023-11-19T04:04:30;3.53;;;2.40;;
11763;SDS011;5939;56.522;14.950;2023-11-19T04:06:55;3.20;;;2.53;;
11763;SDS011;5939;56.522;14.950;2023-11-19T04:09:21;3.40;;;2.57;;
11763;SDS011;5939;56.522;14.950;2023-11-19T04:11:47;3.37;;;2.63;;
11763;SDS011;5939;56.522;14.950;2023-11-19T04:14:13;2.60;;;2.30;;
11763;SDS011;5939;56.522;14.950;2023-11-19T04:16:39;3.40;;;2.30;;
11763;SDS011;5939;56.522;14.950;2023-11-19T04:19:05;2.93;;;2.60;;
11763;SDS011;5939;56.522;14.950;2023-11-19T04:21:31;3.03;;;2.40;;
11763;SDS011;5939;56.522;14.950;2023-11-19T04:23:58;3.10;;;2.70;;
11763;SDS011;5939;56.522;14.950;2023-11-19T04:26:23;3.40;;;2.73;;
11763;SDS011;5939;56.522;14.950;2023-11-19T04:28:49;3.60;;;2.70;;
11763;SDS011;5939;56.522;14.950;2023-11-19T04:31:15;2.80;;;2.37;;
11763;SDS011;5939;56.522;14.950;2023-11-19T04:33:41;2.67;;;2.20;;
11763;SDS011;5939;56.522;14.950;2023-11-19T04:36:08;3.50;;;2.40;;
11763;SDS011;5939;56.522;14.950;2023-11-19T04:38:35;3.33;;;2.53;;
11763;SDS011;5939;56.522;14.950;2023-11-19T04:41:00;3.30;;;2.63;;
11763;SDS011;5939;56.522;14.950;2023-11-19T04:43:26;5.10;;;2.80;;
11763;SDS011;5939;56.522;14.950;2023-11-19T04:45:52;4.77;;;2.70;;
11763;SDS011;5939;56.522;14.950;2023-11-19T04:48:17;4.00;;;3.03;;
11763;SDS011;5939;56.522;14.950;2023-11-19T04:50:43;3.10;;;2.40;;
11763;SDS011;5939;56.522;14.950;2023-11-19T04:53:09;3.90;;;3.00;;
11763;SDS011;5939;56.522;14.950;2023-11-19T04:55:35;3.60;;;2.60;;
11763;SDS011;5939;56.522;14.950;2023-11-19T04:58:00;2.93;;;2.50;;
11763;SDS011;5939;56.522;14.950;2023-11-19T05:00:26;3.57;;;2.93;;
11763;SDS011;5939;56.522;14.950;2023-11-19T05:02:52;3.73;;;2.70;;
11763;SDS011;5939;56.522;14.950;2023-11-19T05:05:17;3.93;;;3.40;;
11763;SDS011;5939;56.522;14.950;2023-11-19T05:07:43;2.90;;;2.43;;
11763;SDS011;5939;56.522;14.950;2023-11-19T05:10:09;3.30;;;2.67;;
11763;SDS011;5939;56.522;14.950;2023-11-19T05:12:35;3.33;;;3.03;;
11763;SDS011;5939;56.522;14.950;2023-11-19T05:15:00;3.10;;;2.60;;
11763;SDS011;5939;56.522;14.950;2023-11-19T05:17:26;2.90;;;2.60;;
11763;SDS011;5939;56.522;14.950;2023-11-19T05:19:51;4.10;;;3.50;;
11763;SDS011;5939;56.522;14.950;2023-11-19T05:22:17;3.77;;;2.73;;
11763;SDS011;5939;56.522;14.950;2023-11-19T05:24:43;3.83;;;2.80;;
11763;SDS011;5939;56.522;14.950;2023-11-19T05:27:09;3.40;;;2.50;;
11763;SDS011;5939;56.522;14.950;2023-11-19T05:29:36;4.50;;;2.77;;
11763;SDS011;5939;56.522;14.950;2023-11-19T05:32:04;2.97;;;2.40;;
11763;SDS011;5939;56.522;14.950;2023-11-19T05:34:30;3.23;;;2.37;;
11763;SDS011;5939;56.522;14.950;2023-11-19T05:36:56;3.73;;;2.70;;
11763;SDS011;5939;56.522;14.950;2023-11-19T05:39:22;2.97;;;2.40;;
11763;SDS011;5939;56.522;14.950;2023-11-19T05:41:49;3.63;;;2.70;;
11763;SDS011;5939;56.522;14.950;2023-11-19T05:44:15;4.10;;;2.80;;
11763;SDS011;5939;56.522;14.950;2023-11-19T05:46:41;3.50;;;2.90;;
11763;SDS011;5939;56.522;14.950;2023-11-19T05:49:11;3.50;;;2.57;;
11763;SDS011;5939;56.522;14.950;2023-11-19T05:51:40;3.43;;;2.63;;
11763;SDS011;5939;56.522;14.950;2023-11-19T05:54:06;2.67;;;2.43;;
11763;SDS011;5939;56.522;14.950;2023-11-19T05:56:33;3.20;;;2.80;;
11763;SDS011;5939;56.522;14.950;2023-11-19T05:58:59;3.10;;;2.70;;
11763;SDS011;5939;56.522;14.950;2023-11-19T06:01:32;4.27;;;2.20;;
11763;SDS011;5939;56.522;14.950;2023-11-19T06:04:01;3.47;;;2.60;;
11763;SDS011;5939;56.522;14.950;2023-11-19T06:06:28;2.40;;;2.20;;
11763;SDS011;5939;56.522;14.950;2023-11-19T06:08:54;4.03;;;2.70;;
11763;SDS011;5939;56.522;14.950;2023-11-19T06:11:20;4.70;;;2.90;;
11763;SDS011;5939;56.522;14.950;2023-11-19T06:13:45;4.20;;;2.60;;
11763;SDS011;5939;56.522;14.950;2023-11-19T06:16:15;3.13;;;2.83;;
11763;SDS011;5939;56.522;14.950;2023-11-19T06:18:40;4.13;;;2.50;;
11763;SDS011;5939;56.522;14.950;2023-11-19T06:21:06;4.70;;;3.03;;
11763;SDS011;5939;56.522;14.950;2023-11-19T06:23:32;3.57;;;2.90;;
11763;SDS011;5939;56.522;14.950;2023-11-19T06:25:57;4.27;;;2.93;;
11763;SDS011;5939;56.522;14.950;2023-11-19T06:28:23;3.47;;;2.87;;
11763;SDS011;5939;56.522;14.950;2023-11-19T06:30:50;4.20;;;3.07;;
11763;SDS011;5939;56.522;14.950;2023-11-19T06:33:15;4.43;;;3.20;;
11763;SDS011;5939;56.522;14.950;2023-11-19T06:35:41;5.00;;;3.60;;
11763;SDS011;5939;56.522;14.950;2023-11-19T06:38:07;4.60;;;3.10;;
11763;SDS011;5939;56.522;14.950;2023-11-19T06:40:33;4.77;;;3.30;;
11763;SDS011;5939;56.522;14.950;2023-11-19T06:43:00;3.17;;;2.83;;
11763;SDS011;5939;56.522;14.950;2023-11-19T06:45:26;3.90;;;2.93;;
11763;SDS011;5939;56.522;14.950;2023-11-19T06:47:51;6.17;;;3.13;;
11763;SDS011;5939;56.522;14.950;2023-11-19T06:50:17;3.57;;;2.90;;
11763;SDS011;5939;56.522;14.950;2023-11-19T06:52:44;4.50;;;2.83;;
11763;SDS011;5939;56.522;14.950;2023-11-19T06:55:10;3.57;;;2.67;;
11763;SDS011;5939;56.522;14.950;2023-11-19T06:57:36;4.47;;;3.40;;
11763;SDS011;5939;56.522;14.950;2023-11-19T07:00:02;4.00;;;2.93;;
11763;SDS011;5939;56.522;14.950;2023-11-19T07:02:30;4.90;;;2.80;;
11763;SDS011;5939;56.522;14.950;2023-11-19T07:04:56;3.60;;;3.03;;
11763;SDS011;5939;56.522;14.950;2023-11-19T07:07:22;4.63;;;2.97;;
11763;SDS011;5939;56.522;14.950;2023-11-19T07:09:47;4.13;;;3.33;;
11763;SDS011;5939;56.522;14.950;2023-11-19T07:12:13;3.53;;;2.90;;
11763;SDS011;5939;56.522;14.950;2023-11-19T07:14:39;5.73;;;3.30;;
11763;SDS011;5939;56.522;14.950;2023-11-19T07:17:06;3.80;;;3.47;;
11763;SDS011;5939;56.522;14.950;2023-11-19T07:19:33;4.90;;;3.20;;
11763;SDS011;5939;56.522;14.950;2023-11-19T07:22:01;3.67;;;3.10;;
11763;SDS011;5939;56.522;14.950;2023-11-19T07:24:27;5.33;;;3.37;;
11763;SDS011;5939;56.522;14.950;2023-11-19T07:26:53;4.17;;;2.77;;
11763;SDS011;5939;56.522;14.950;2023-11-19T07:29:19;5.10;;;3.33;;
11763;SDS011;5939;56.522;14.950;2023-11-19T07:31:47;4.77;;;3.03;;
11763;SDS011;5939;56.522;14.950;2023-11-19T07:34:13;5.30;;;3.70;;
11763;SDS011;5939;56.522;14.950;2023-11-19T07:36:39;4.33;;;2.90;;
11763;SDS011;5939;56.522;14.950;2023-11-19T07:39:05;5.80;;;3.33;;
11763;SDS011;5939;56.522;14.950;2023-11-19T07:41:31;4.90;;;3.40;;
11763;SDS011;5939;56.522;14.950;2023-11-19T07:43:57;4.90;;;3.60;;
11763;SDS011;5939;56.522;14.950;2023-11-19T07:46:23;6.37;;;3.50;;
11763;SDS011;5939;56.522;14.950;2023-11-19T07:48:50;5.77;;;3.67;;
11763;SDS011;5939;56.522;14.950;2023-11-19T07:51:15;4.37;;;3.40;;
11763;SDS011;5939;56.522;14.950;2023-11-19T07:53:41;5.33;;;3.70;;
11763;SDS011;5939;56.522;14.950;2023-11-19T07:56:07;5.90;;;3.80;;
11763;SDS011;5939;56.522;14.950;2023-11-19T07:58:33;7.33;;;4.07;;
11763;SDS011;5939;56.522;14.950;2023-11-19T08:01:00;6.63;;;3.93;;
11763;SDS011;5939;56.522;14.950;2023-11-19T08:03:26;6.63;;;4.07;;
11763;SDS011;5939;56.522;14.950;2023-11-19T08:05:54;6.33;;;4.30;;
11763;SDS011;5939;56.522;14.950;2023-11-19T08:08:21;4.67;;;3.60;;
11763;SDS011;5939;56.522;14.950;2023-11-19T08:10:47;5.00;;;3.63;;
11763;SDS011;5939;56.522;14.950;2023-11-19T08:13:13;5.07;;;3.77;;
11763;SDS011;5939;56.522;14.950;2023-11-19T08:15:39;6.03;;;4.03;;
11763;SDS011;5939;56.522;14.950;2023-11-19T08:18:05;5.77;;;4.33;;
11763;SDS011;5939;56.522;14.950;2023-11-19T08:20:32;4.30;;;3.70;;
11763;SDS011;5939;56.522;14.950;2023-11-19T08:22:58;5.47;;;3.83;;
11763;SDS011;5939;56.522;14.950;2023-11-19T08:25:24;6.13;;;3.87;;
11763;SDS011;5939;56.522;14.950;2023-11-19T08:27:49;5.37;;;3.70;;
11763;SDS011;5939;56.522;14.950;2023-11-19T08:30:15;4.53;;;3.87;;
11763;SDS011;5939;56.522;14.950;2023-11-19T08:32:41;4.97;;;3.67;;
11763;SDS011;5939;56.522;14.950;2023-11-19T08:35:06;4.30;;;3.50;;
11763;SDS011;5939;56.522;14.950;2023-11-19T08:37:32;4.00;;;3.40;;
11763;SDS011;5939;56.522;14.950;2023-11-19T08:40:01;6.27;;;3.90;;
11763;SDS011;5939;56.522;14.950;2023-11-19T08:42:28;7.40;;;4.00;;
11763;SDS011;5939;56.522;14.950;2023-11-19T08:44:54;5.53;;;3.60;;
11763;SDS011;5939;56.522;14.950;2023-11-19T08:47:20;4.67;;;3.60;;
11763;SDS011;5939;56.522;14.950;2023-11-19T08:49:47;4.33;;;3.53;;
11763;SDS011;5939;56.522;14.950;2023-11-19T08:52:15;6.27;;;3.83;;
11763;SDS011;5939;56.522;14.950;2023-11-19T08:54:42;3.87;;;3.40;;
11763;SDS011;5939;56.522;14.950;2023-11-19T08:57:08;6.53;;;3.50;;
11763;SDS011;5939;56.522;14.950;2023-11-19T08:59:34;5.00;;;3.60;;
11763;SDS011;5939;56.522;14.950;2023-11-19T09:02:00;6.13;;;3.77;;
11763;SDS011;5939;56.522;14.950;2023-11-19T09:04:26;5.03;;;3.20;;
11763;SDS011;5939;56.522;14.950;2023-11-19T09:06:52;5.60;;;3.63;;
11763;SDS011;5939;56.522;14.950;2023-11-19T09:09:18;3.83;;;3.43;;
11763;SDS011;5939;56.522;14.950;2023-11-19T09:11:44;4.53;;;3.80;;
11763;SDS011;5939;56.522;14.950;2023-11-19T09:14:09;6.27;;;3.83;;
11763;SDS011;5939;56.522;14.950;2023-11-19T09:16:35;6.07;;;3.57;;
11763;SDS011;5939;56.522;14.950;2023-11-19T09:19:01;6.17;;;3.80;;
11763;SDS011;5939;56.522;14.950;2023-11-19T09:21:27;4.23;;;3.20;;
11763;SDS011;5939;56.522;14.950;2023-11-19T09:23:54;5.10;;;3.60;;
11763;SDS011;5939;56.522;14.950;2023-11-19T09:26:20;5.20;;;4.13;;
11763;SDS011;5939;56.522;14.950;2023-11-19T09:28:46;6.03;;;3.40;;
11763;SDS011;5939;56.522;14.950;2023-11-19T09:31:15;5.13;;;3.63;;
11763;SDS011;5939;56.522;14.950;2023-11-19T09:33:41;5.73;;;3.40;;
11763;SDS011;5939;56.522;14.950;2023-11-19T09:36:07;5.00;;;3.60;;
11763;SDS011;5939;56.522;14.950;2023-11-19T09:38:34;4.47;;;3.73;;
11763;SDS011;5939;56.522;14.950;2023-11-19T09:41:03;4.10;;;3.10;;
11763;SDS011;5939;56.522;14.950;2023-11-19T09:43:37;4.23;;;3.30;;
11763;SDS011;5939;56.522;14.950;2023-11-19T09:46:09;5.20;;;3.17;;
11763;SDS011;5939;56.522;14.950;2023-11-19T09:48:38;4.43;;;3.00;;
11763;SDS011;5939;56.522;14.950;2023-11-19T09:51:08;4.27;;;3.27;;
11763;SDS011;5939;56.522;14.950;2023-11-19T09:53:34;4.80;;;3.50;;
11763;SDS011;5939;56.522;14.950;2023-11-19T09:56:01;5.00;;;3.60;;
11763;SDS011;5939;56.522;14.950;2023-11-19T09:58:28;3.60;;;3.00;;
11763;SDS011;5939;56.522;14.950;2023-11-19T10:00:56;4.00;;;3.07;;
11763;SDS011;5939;56.522;14.950;2023-11-19T10:03:24;3.60;;;2.93;;
11763;SDS011;5939;56.522;14.950;2023-11-19T10:05:51;4.97;;;3.13;;
11763;SDS011;5939;56.522;14.950;2023-11-19T10:08:19;3.43;;;2.90;;
11763;SDS011;5939;56.522;14.950;2023-11-19T10:10:45;4.90;;;3.87;;
11763;SDS011;5939;56.522;14.950;2023-11-19T10:13:10;5.33;;;3.43;;
11763;SDS011;5939;56.522;14.950;2023-11-19T10:15:37;4.37;;;3.47;;
11763;SDS011;5939;56.522;14.950;2023-11-19T10:18:02;4.93;;;3.47;;
11763;SDS011;5939;56.522;14.950;2023-11-19T10:20:35;5.20;;;3.60;;
11763;SDS011;5939;56.522;14.950;2023-11-19T10:23:05;5.90;;;3.50;;
11763;SDS011;5939;56.522;14.950;2023-11-19T10:25:31;5.10;;;3.40;;
11763;SDS011;5939;56.522;14.950;2023-11-19T10:27:58;4.43;;;3.70;;
11763;SDS011;5939;56.522;14.950;2023-11-19T10:30:26;5.17;;;3.40;;
11763;SDS011;5939;56.522;14.950;2023-11-19T10:33:03;4.20;;;3.27;;
11763;SDS011;5939;56.522;14.950;2023-11-19T10:35:53;5.63;;;3.90;;
11763;SDS011;5939;56.522;14.950;2023-11-19T10:38:21;4.40;;;3.40;;
11763;SDS011;5939;56.522;14.950;2023-11-19T10:40:47;4.73;;;3.47;;
11763;SDS011;5939;56.522;14.950;2023-11-19T10:43:14;5.83;;;3.60;;
11763;SDS011;5939;56.522;14.950;2023-11-19T10:45:40;5.93;;;3.50;;
11763;SDS011;5939;56.522;14.950;2023-11-19T10:48:06;8.03;;;3.37;;
11763;SDS011;5939;56.522;14.950;2023-11-19T10:50:35;4.87;;;3.70;;
11763;SDS011;5939;56.522;14.950;2023-11-19T10:53:02;4.70;;;3.30;;
11763;SDS011;5939;56.522;14.950;2023-11-19T10:55:30;5.00;;;3.10;;
11763;SDS011;5939;56.522;14.950;2023-11-19T10:58:03;5.03;;;3.40;;
11763;SDS011;5939;56.522;14.950;2023-11-19T11:00:33;5.00;;;3.47;;
11763;SDS011;5939;56.522;14.950;2023-11-19T11:03:05;5.20;;;3.60;;
11763;SDS011;5939;56.522;14.950;2023-11-19T11:05:45;3.23;;;2.87;;
11763;SDS011;5939;56.522;14.950;2023-11-19T11:08:12;4.30;;;3.20;;
11763;SDS011;5939;56.522;14.950;2023-11-19T11:10:45;4.23;;;3.27;;
11763;SDS011;5939;56.522;14.950;2023-11-19T11:13:17;3.20;;;2.90;;
11763;SDS011;5939;56.522;14.950;2023-11-19T11:15:44;6.10;;;3.27;;
11763;SDS011;5939;56.522;14.950;2023-11-19T11:18:11;4.60;;;3.40;;
11763;SDS011;5939;56.522;14.950;2023-11-19T11:20:38;4.40;;;3.70;;
11763;SDS011;5939;56.522;14.950;2023-11-19T11:26:00;4.73;;;3.50;;
11763;SDS011;5939;56.522;14.950;2023-11-19T11:39:23;4.97;;;3.33;;
11763;SDS011;5939;56.522;14.950;2023-11-19T11:42:24;6.80;;;3.90;;
11763;SDS011;5939;56.522;14.950;2023-11-19T11:50:13;7.03;;;3.70;;
11763;SDS011;5939;56.522;14.950;2023-11-19T11:55:37;6.50;;;3.67;;
11763;SDS011;5939;56.522;14.950;2023-11-19T11:58:20;6.13;;;4.00;;
11763;SDS011;5939;56.522;14.950;2023-11-19T12:00:46;4.00;;;3.37;;
11763;SDS011;5939;56.522;14.950;2023-11-19T12:03:13;4.40;;;3.37;;
11763;SDS011;5939;56.522;14.950;2023-11-19T12:05:46;5.10;;;3.60;;
11763;SDS011;5939;56.522;14.950;2023-11-19T12:08:12;3.47;;;3.13;;
11763;SDS011;5939;56.522;14.950;2023-11-19T12:10:47;6.73;;;3.57;;
11763;SDS011;5939;56.522;14.950;2023-11-19T12:13:18;4.23;;;3.17;;
11763;SDS011;5939;56.522;14.950;2023-11-19T12:18:23;4.70;;;3.17;;
11763;SDS011;5939;56.522;14.950;2023-11-19T12:20:52;5.17;;;3.40;;
11763;SDS011;5939;56.522;14.950;2023-11-19T12:23:18;6.10;;;4.00;;
11763;SDS011;5939;56.522;14.950;2023-11-19T12:25:44;3.63;;;3.30;;
11763;SDS011;5939;56.522;14.950;2023-11-19T12:28:13;5.57;;;3.30;;
11763;SDS011;5939;56.522;14.950;2023-11-19T12:30:39;4.03;;;2.97;;
11763;SDS011;5939;56.522;14.950;2023-11-19T12:33:08;3.67;;;3.00;;
11763;SDS011;5939;56.522;14.950;2023-11-19T12:35:44;3.83;;;3.23;;
11763;SDS011;5939;56.522;14.950;2023-11-19T12:40:46;3.70;;;2.77;;
11763;SDS011;5939;56.522;14.950;2023-11-19T12:43:13;3.20;;;2.83;;
11763;SDS011;5939;56.522;14.950;2023-11-19T12:45:47;3.33;;;2.70;;
11763;SDS011;5939;56.522;14.950;2023-11-19T12:48:13;4.43;;;3.03;;
11763;SDS011;5939;56.522;14.950;2023-11-19T12:50:57;5.83;;;2.87;;
11763;SDS011;5939;56.522;14.950;2023-11-19T12:53:25;3.57;;;2.80;;
11763;SDS011;5939;56.522;14.950;2023-11-19T12:55:52;3.27;;;2.97;;
11763;SDS011;5939;56.522;14.950;2023-11-19T12:58:28;3.77;;;2.70;;
11763;SDS011;5939;56.522;14.950;2023-11-19T13:01:05;3.53;;;2.83;;
11763;SDS011;5939;56.522;14.950;2023-11-19T13:03:35;4.47;;;3.03;;
11763;SDS011;5939;56.522;14.950;2023-11-19T13:06:04;4.40;;;2.60;;
11763;SDS011;5939;56.522;14.950;2023-11-19T13:08:39;3.40;;;2.50;;
11763;SDS011;5939;56.522;14.950;2023-11-19T13:11:06;4.00;;;3.00;;
11763;SDS011;5939;56.522;14.950;2023-11-19T13:13:33;4.87;;;2.80;;
11763;SDS011;5939;56.522;14.950;2023-11-19T13:16:18;4.23;;;2.83;;
11763;SDS011;5939;56.522;14.950;2023-11-19T13:18:44;3.30;;;2.90;;
11763;SDS011;5939;56.522;14.950;2023-11-19T13:21:09;4.47;;;2.80;;
11763;SDS011;5939;56.522;14.950;2023-11-19T13:23:35;3.53;;;2.70;;
11763;SDS011;5939;56.522;14.950;2023-11-19T13:26:01;3.93;;;3.20;;
11763;SDS011;5939;56.522;14.950;2023-11-19T13:28:26;3.87;;;2.57;;
11763;SDS011;5939;56.522;14.950;2023-11-19T13:30:52;4.63;;;2.87;;
11763;SDS011;5939;56.522;14.950;2023-11-19T13:33:18;5.03;;;2.90;;
11763;SDS011;5939;56.522;14.950;2023-11-19T13:35:44;3.63;;;2.93;;
11763;SDS011;5939;56.522;14.950;2023-11-19T13:38:09;4.50;;;2.83;;
11763;SDS011;5939;56.522;14.950;2023-11-19T13:40:35;4.70;;;3.13;;
11763;SDS011;5939;56.522;14.950;2023-11-19T13:43:01;5.10;;;2.83;;
11763;SDS011;5939;56.522;14.950;2023-11-19T13:45:27;3.50;;;2.90;;
11763;SDS011;5939;56.522;14.950;2023-11-19T13:47:53;3.93;;;3.20;;
11763;SDS011;5939;56.522;14.950;2023-11-19T13:50:18;3.87;;;3.17;;
11763;SDS011;5939;56.522;14.950;2023-11-19T13:52:45;3.80;;;2.80;;
11763;SDS011;5939;56.522;14.950;2023-11-19T13:55:12;3.77;;;2.67;;
11763;SDS011;5939;56.522;14.950;2023-11-19T13:57:39;5.77;;;2.77;;
11763;SDS011;5939;56.522;14.950;2023-11-19T14:00:06;5.10;;;3.33;;
11763;SDS011;5939;56.522;14.950;2023-11-19T14:02:44;5.03;;;2.90;;
11763;SDS011;5939;56.522;14.950;2023-11-19T14:05:11;4.83;;;3.40;;
11763;SDS011;5939;56.522;14.950;2023-11-19T14:07:37;4.13;;;3.03;;
11763;SDS011;5939;56.522;14.950;2023-11-19T14:10:03;5.03;;;2.83;;
11763;SDS011;5939;56.522;14.950;2023-11-19T14:12:34;3.97;;;3.20;;
11763;SDS011;5939;56.522;14.950;2023-11-19T14:15:03;4.47;;;2.97;;
11763;SDS011;5939;56.522;14.950;2023-11-19T14:17:31;4.87;;;3.40;;
11763;SDS011;5939;56.522;14.950;2023-11-19T14:19:57;8.07;;;3.90;;
11763;SDS011;5939;56.522;14.950;2023-11-19T14:22:23;9.17;;;3.47;;
11763;SDS011;5939;56.522;14.950;2023-11-19T14:24:49;9.20;;;3.77;;
11763;SDS011;5939;56.522;14.950;2023-11-19T14:27:15;10.63;;;3.37;;
11763;SDS011;5939;56.522;14.950;2023-11-19T14:29:42;7.40;;;3.37;;
11763;SDS011;5939;56.522;14.950;2023-11-19T14:32:09;7.77;;;3.30;;
11763;SDS011;5939;56.522;14.950;2023-11-19T14:34:35;5.63;;;3.53;;
11763;SDS011;5939;56.522;14.950;2023-11-19T14:37:01;5.60;;;3.20;;
11763;SDS011;5939;56.522;14.950;2023-11-19T14:39:26;5.73;;;3.57;;
11763;SDS011;5939;56.522;14.950;2023-11-19T14:41:54;5.27;;;3.40;;
11763;SDS011;5939;56.522;14.950;2023-11-19T14:44:23;6.87;;;3.53;;
11763;SDS011;5939;56.522;14.950;2023-11-19T14:46:49;9.97;;;3.80;;
11763;SDS011;5939;56.522;14.950;2023-11-19T14:49:14;5.27;;;3.10;;
11763;SDS011;5939;56.522;14.950;2023-11-19T14:51:40;5.37;;;3.10;;
11763;SDS011;5939;56.522;14.950;2023-11-19T14:54:06;4.50;;;2.90;;
11763;SDS011;5939;56.522;14.950;2023-11-19T14:56:32;5.23;;;3.40;;
11763;SDS011;5939;56.522;14.950;2023-11-19T14:58:58;4.23;;;3.10;;
11763;SDS011;5939;56.522;14.950;2023-11-19T15:01:23;5.10;;;3.27;;
11763;SDS011;5939;56.522;14.950;2023-11-19T15:03:49;5.10;;;3.00;;
11763;SDS011;5939;56.522;14.950;2023-11-19T15:06:15;4.80;;;3.27;;
11763;SDS011;5939;56.522;14.950;2023-11-19T15:08:41;3.83;;;2.73;;
11763;SDS011;5939;56.522;14.950;2023-11-19T15:11:07;5.27;;;3.53;;
11763;SDS011;5939;56.522;14.950;2023-11-19T15:13:34;3.47;;;3.10;;
11763;SDS011;5939;56.522;14.950;2023-11-19T15:16:02;4.97;;;3.20;;